Flight Track Log - Related Links

Times and Time Zones

All times are in EDT time to prevent confusion due to time zone crossing. See the DAL110 flight status page for this flight to view local times or setup timezone preferences in your user account.

Time Position Orientation Groundspeed Altitude Reporting Facility
EDT Latitude Longitude Course Direction KTS MPH feet Rate Location/Type
Tue 08:48:37 AM 33.7210 -84.2740 270° West 277 319 6,400  Level FlightAware ADS-B
Tue 08:48:57 AM 33.7480 -84.2770 355° North 274 315 7,400 2,743 Climbing FlightAware ADS-B
Tue 08:49:00 AM 33.8001 -84.3578 270° West  Level FlightAware Approximate
Tue 08:49:12 AM 33.7670 -84.2790 355° North 289 333 8,000  Level FlightAware ADS-B
Tue 08:49:27 AM 33.7870 -84.2860 344° North 278 320 8,900 3,000 Climbing FlightAware ADS-B
Tue 08:49:42 AM 33.8030 -84.3010 322° Northwest 286 329 9,500 2,600 Climbing FlightAware ADS-B
Tue 08:49:57 AM 33.8120 -84.3210 298° West 285 328 10,200 2,880 Climbing FlightAware ADS-B
Tue 08:50:07 AM 33.8140 -84.3380 278° West 287 330 10,700 1,636 Climbing FlightAware ADS-B
Tue 08:50:52 AM 33.8130 -84.4180 269° West 346 398 11,700 1,725 Climbing FlightAware ADS-B
Tue 08:51:27 AM 33.8120 -84.4870 269° West 363 418 13,000 2,700 Climbing FlightAware ADS-B
Tue 08:52:12 AM 33.8100 -84.5780 269° West 369 425 15,300 3,000 Climbing FlightAware ADS-B
Tue 08:52:57 AM 33.7920 -84.6610 255° West 372 428 17,500 2,824 Climbing FlightAware ADS-B
Tue 08:53:37 AM 33.7690 -84.7500 253° West 385 443 19,300 2,753 Climbing FlightAware ADS-B
Tue 08:54:22 AM 33.7460 -84.8440 254° West 398 458 21,400 2,894 Climbing FlightAware ADS-B
Tue 08:55:02 AM 33.7260 -84.9240 253° West 400 460 23,400 2,775 Climbing FlightAware ADS-B
Tue 08:55:42 AM 33.7030 -85.0130 253° West 409 471 25,100 2,534 Climbing FlightAware ADS-B
Tue 08:56:58 AM 33.6585 -85.1928 253° West 431 496 28,300 2,359 Climbing FlightAware ADS-B
Tue 08:58:07 AM 33.6490 -85.3510 266° West 443 510 30,800 2,147 Climbing FlightAware ADS-B
Tue 08:58:47 AM 33.6520 -85.4500 272° West 451 519 32,200 2,480 Climbing FlightAware ADS-B
Tue 08:59:22 AM 33.6530 -85.5310 271° West 442 509 33,900 1,275 Climbing FlightAware ADS-B
Tue 09:00:07 AM 33.6530 -85.6290 270° West 442 509 33,900  Level FlightAware ADS-B
Tue 09:00:47 AM 33.6530 -85.7120 270° West 442 509 33,900 695 Level FlightAware ADS-B
Tue 09:01:42 AM 33.6580 -85.8640 272° West 441 507 35,000 629 Climbing FlightAware ADS-B
Tue 09:02:32 AM 33.6600 -85.9890 271° West 442 509 35,000  Level FlightAware ADS-B
Tue 09:03:27 AM 33.6630 -86.1360 271° West 443 510 35,000  Level FlightAware ADS-B
Tue 09:04:07 AM 33.6640 -86.2320 271° West 443 510 35,000  Level FlightAware ADS-B
Tue 09:04:52 AM 33.6650 -86.3400 271° West 443 510 35,000  Level FlightAware ADS-B
Tue 09:05:32 AM 33.6660 -86.4380 271° West 442 509 35,000  Level FlightAware ADS-B
Tue 09:06:12 AM 33.6670 -86.5380 271° West 441 507 35,000  Level FlightAware ADS-B
Tue 09:06:57 AM 33.6680 -86.6450 271° West 438 504 35,000  Level FlightAware ADS-B
Tue 09:07:42 AM 33.6690 -86.7500 271° West 439 505 35,000  Level FlightAware ADS-B
Tue 09:08:32 AM 33.6710 -86.8790 271° West 437 503 35,000  Level FlightAware ADS-B
Tue 09:09:07 AM 33.6820 -86.9570 280° West 436 502 35,000  Level FlightAware ADS-B
Tue 09:09:52 AM 33.7010 -87.0530 283° West 436 502 35,000  Level FlightAware ADS-B
Tue 09:10:47 AM 33.7320 -87.1880 285° West 432 497 35,000  Level FlightAware ADS-B
Tue 09:11:37 AM 33.7540 -87.2870 285° West 432 497 35,000  Level FlightAware ADS-B
Tue 09:12:17 AM 33.7720 -87.3660 285° West 432 497 35,000  Level FlightAware ADS-B
Tue 09:12:57 AM 33.7890 -87.4450 285° West 432 497 35,000  Level FlightAware ADS-B
Tue 09:13:37 AM 33.8070 -87.5240 285° West 432 497 35,000  Level FlightAware ADS-B
Tue 09:14:17 AM 33.8240 -87.6030 285° West 432 497 35,000  Level FlightAware ADS-B
Tue 09:15:07 AM 33.8460 -87.7020 285° West 432 497 35,000  Level FlightAware ADS-B
Tue 09:15:47 AM 33.8640 -87.7810 285° West 432 497 35,000  Level FlightAware ADS-B
Tue 09:16:27 AM 33.8820 -87.8600 285° West 432 497 35,000  Level FlightAware ADS-B
Tue 09:17:07 AM 33.8990 -87.9390 285° West 432 497 35,000  Level FlightAware ADS-B
Tue 09:17:47 AM 33.9170 -88.0180 285° West 432 497 35,000  Level FlightAware ADS-B
Tue 09:18:37 AM 33.9390 -88.1170 285° West 432 497 35,000  Level FlightAware ADS-B
Tue 09:19:17 AM 33.9560 -88.1960 285° West 432 497 35,000  Level FlightAware ADS-B
Tue 09:19:57 AM 33.9740 -88.2750 285° West 432 497 35,000 833 Level FlightAware ADS-B
Tue 09:20:29 AM 34.0047 -88.5256 285° West 427 491 36,000 652 Climbing Memphis Center
Tue 09:21:29 AM 34.0294 -88.6478 284° West 427 491 36,000  Level Memphis Center
Tue 09:22:29 AM 34.0564 -88.7853 283° West 427 491 36,000  Level Memphis Center
Tue 09:23:29 AM 34.0853 -88.9300 284° West 421 484 36,000  Level Memphis Center
Tue 09:24:29 AM 34.1094 -89.0550 283° West 421 484 36,000  Level Memphis Center
Tue 09:25:29 AM 34.1358 -89.1953 283° West 421 484 36,000  Level Memphis Center
Tue 09:26:29 AM 34.1642 -89.3306 284° West 421 484 36,000  Level Memphis Center
Tue 09:27:29 AM 34.1883 -89.4683 282° West 426 490 36,000  Level Memphis Center
Tue 09:28:29 AM 34.2142 -89.6086 283° West 431 496 36,000  Level Memphis Center
Tue 09:29:29 AM 34.2442 -89.7617 283° West 431 496 36,000  Level Memphis Center
Tue 09:30:29 AM 34.2700 -89.8997 283° West 431 496 36,000  Level Memphis Center
Tue 09:31:29 AM 34.2975 -90.0378 284° West 431 496 36,000  Level Memphis Center
Tue 09:32:29 AM 34.3208 -90.1786 281° West 431 496 36,000  Level Memphis Center
Tue 09:33:29 AM 34.3481 -90.3169 283° West 431 496 36,000  Level Memphis Center
Tue 09:34:29 AM 34.3731 -90.4603 282° West 431 496 36,000  Level Memphis Center
Tue 09:35:29 AM 34.4000 -90.5964 284° West 426 490 36,000  Level Memphis Center
Tue 09:36:29 AM 34.4225 -90.7222 282° West 426 490 36,000  Level Memphis Center
Tue 09:37:29 AM 34.4472 -90.8583 282° West 426 490 36,000  Level Memphis Center
Tue 09:38:29 AM 34.4736 -91.0022 283° West 431 496 36,000  Level Memphis Center
Tue 09:39:29 AM 34.4981 -91.1408 282° West 426 490 36,000  Level Memphis Center
Tue 09:40:29 AM 34.5200 -91.2797 281° West 426 490 36,000  Level Memphis Center
Tue 09:41:29 AM 34.5481 -91.4314 283° West 426 490 36,000  Level Memphis Center
Tue 09:42:29 AM 34.5739 -91.5703 283° West 426 490 36,000  Level Memphis Center
Tue 09:43:29 AM 34.5975 -91.7094 282° West 426 490 36,000  Level Memphis Center
Tue 09:44:29 AM 34.6189 -91.8436 281° West 415 478 36,000  Level Memphis Center
Tue 09:45:29 AM 34.6442 -91.9828 282° West 415 478 36,000  Level Memphis Center
Tue 09:46:29 AM 34.6653 -92.1197 281° West 415 478 36,000  Level Memphis Center
Tue 09:47:29 AM 34.6800 -92.2589 277° West 415 478 36,000  Level Memphis Center
Tue 09:48:29 AM 34.6925 -92.3981 276° West 415 478 36,000  Level Memphis Center
Tue 09:49:29 AM 34.6983 -92.5447 273° West 421 484 36,000  Level Memphis Center
Tue 09:50:29 AM 34.7061 -92.6811 274° West 421 484 36,000  Level Memphis Center
Tue 09:56:12 AM 34.7520 -93.4860 274° West 420 483 36,000  Level FlightAware ADS-B
Tue 09:56:47 AM 34.7560 -93.5660 274° West 420 483 36,000  Level FlightAware ADS-B
Tue 09:57:37 AM 34.7600 -93.6670 273° West 420 483 36,000  Level FlightAware ADS-B
Tue 09:58:17 AM 34.7640 -93.7470 274° West 420 483 36,000  Level FlightAware ADS-B
Tue 09:58:57 AM 34.7670 -93.8270 273° West 420 483 36,000  Level FlightAware ADS-B
Tue 09:59:37 AM 34.7710 -93.9080 273° West 420 483 36,000  Level FlightAware ADS-B
Tue 10:00:17 AM 34.7740 -93.9880 273° West 420 483 36,000  Level FlightAware ADS-B
Tue 10:01:07 AM 34.7790 -94.0880 274° West 420 483 36,000  Level FlightAware ADS-B
Tue 10:02:02 AM 34.7920 -94.3150 274° West 423 487 36,000  Level FlightAware ADS-B
Tue 10:02:42 AM 34.7970 -94.4130 274° West 421 484 36,000  Level FlightAware ADS-B
Tue 10:03:27 AM 34.8010 -94.5120 273° West 422 486 36,000  Level FlightAware ADS-B
Tue 10:04:07 AM 34.8050 -94.6110 273° West 421 484 36,000  Level FlightAware ADS-B
Tue 10:04:47 AM 34.8080 -94.6960 272° West 421 484 36,000  Level FlightAware ADS-B
Tue 10:05:27 AM 34.8130 -94.7980 273° West 421 484 36,000  Level FlightAware ADS-B
Tue 10:06:02 AM 34.8170 -94.8830 273° West 422 486 36,000  Level FlightAware ADS-B
Tue 10:06:47 AM 34.8210 -94.9900 273° West 422 486 36,000  Level FlightAware ADS-B
Tue 10:07:37 AM 34.8250 -95.0990 273° West 422 486 36,000  Level FlightAware ADS-B
Tue 10:08:17 AM 34.8290 -95.2000 273° West 423 487 36,000  Level FlightAware ADS-B
Tue 10:09:02 AM 34.8330 -95.3080 273° West 424 488 36,000  Level FlightAware ADS-B
Tue 10:09:42 AM 34.8360 -95.4000 272° West 424 488 36,000  Level FlightAware ADS-B
Tue 10:10:27 AM 34.8400 -95.5070 273° West 426 490 36,000  Level FlightAware ADS-B
Tue 10:11:02 AM 34.8430 -95.5940 272° West 425 489 36,000  Level FlightAware ADS-B
Tue 10:11:47 AM 34.8470 -95.7000 273° West 425 489 36,000  Level FlightAware ADS-B
Tue 10:12:32 AM 34.8520 -95.8090 273° West 424 488 36,000  Level FlightAware ADS-B
Tue 10:13:12 AM 34.8600 -95.9060 276° West 423 487 36,000  Level FlightAware ADS-B
Tue 10:13:52 AM 34.8690 -96.0020 277° West 421 484 36,000  Level FlightAware ADS-B
Tue 10:14:37 AM 34.8780 -96.1060 276° West 423 487 36,000  Level FlightAware ADS-B
Tue 10:15:17 AM 34.8860 -96.2000 276° West 423 487 36,000  Level FlightAware ADS-B
Tue 10:16:02 AM 34.8950 -96.3060 276° West 423 487 36,000  Level FlightAware ADS-B
Tue 10:16:42 AM 34.9030 -96.4000 276° West 425 489 36,000  Level FlightAware ADS-B
Tue 10:17:22 AM 34.9120 -96.4960 277° West 426 490 36,000  Level FlightAware ADS-B
Tue 10:18:07 AM 34.9200 -96.6030 275° West 427 491 36,000  Level FlightAware ADS-B
Tue 10:18:47 AM 34.9280 -96.6980 276° West 428 493 36,000  Level FlightAware ADS-B
Tue 10:19:27 AM 34.9360 -96.7980 276° West 431 496 36,000  Level FlightAware ADS-B
Tue 10:20:12 AM 34.9450 -96.9040 276° West 433 498 36,000  Level FlightAware ADS-B
Tue 10:20:52 AM 34.9530 -96.9990 276° West 435 501 36,000  Level FlightAware ADS-B
Tue 10:21:52 AM 34.9640 -97.1480 275° West 435 501 36,000  Level FlightAware ADS-B
Tue 10:22:32 AM 34.9720 -97.2450 276° West 437 503 36,000  Level FlightAware ADS-B
Tue 10:23:17 AM 34.9800 -97.3510 275° West 437 503 36,000  Level FlightAware ADS-B
Tue 10:23:57 AM 34.9880 -97.4520 276° West 438 504 36,000  Level FlightAware ADS-B
Tue 10:24:37 AM 34.9950 -97.5530 275° West 440 506 36,000  Level FlightAware ADS-B
Tue 10:25:22 AM 35.0040 -97.6650 276° West 439 505 36,000  Level FlightAware ADS-B
Tue 10:26:02 AM 35.0110 -97.7610 275° West 439 505 36,000 150 Level FlightAware ADS-B
Tue 10:26:42 AM 35.0180 -97.8540 275° West 438 504 36,200 300 Climbing FlightAware ADS-B
Tue 10:27:22 AM 35.0240 -97.9480 274° West 435 501 36,400 150 Climbing FlightAware ADS-B
Tue 10:28:02 AM 35.0300 -98.0310 275° West 435 501 36,400  Level FlightAware ADS-B
Tue 10:28:52 AM 35.0380 -98.1350 275° West 435 501 36,400  Level FlightAware ADS-B
Tue 10:29:32 AM 35.0440 -98.2180 275° West 435 501 36,400  Level FlightAware ADS-B
Tue 10:30:12 AM 35.0500 -98.3020 275° West 435 501 36,400  Level FlightAware ADS-B
Tue 10:30:52 AM 35.0560 -98.3850 275° West 435 501 36,400  Level FlightAware ADS-B
Tue 10:31:32 AM 35.0620 -98.4680 275° West 435 501 36,400  Level FlightAware ADS-B
Tue 10:32:22 AM 35.0690 -98.5720 275° West 435 501 36,400  Level FlightAware ADS-B
Tue 10:33:02 AM 35.0750 -98.6560 275° West 435 501 36,400  Level FlightAware ADS-B
Tue 10:33:42 AM 35.0810 -98.7390 275° West 435 501 36,400  Level FlightAware ADS-B
Tue 10:34:22 AM 35.0870 -98.8220 275° West 435 501 36,400  Level FlightAware ADS-B
Tue 10:35:02 AM 35.0930 -98.9060 275° West 435 501 36,400  Level FlightAware ADS-B
Tue 10:35:42 AM 35.0990 -98.9890 275° West 435 501 36,400  Level FlightAware ADS-B
Tue 10:36:32 AM 35.1060 -99.0930 275° West 435 501 36,400 1,455 Level FlightAware ADS-B
Tue 10:36:48 AM 35.1153 -99.3097 275° West 424 488 38,000 1,231 Climbing Albuquerque Center
Tue 10:37:50 AM 35.1239 -99.4558 274° West 427 491 38,000  Level Albuquerque Center
Tue 10:38:52 AM 35.1317 -99.6011 274° West 426 490 38,000  Level Albuquerque Center
Tue 10:39:54 AM 35.1411 -99.7467 275° West 428 493 38,000  Level Albuquerque Center
Tue 10:40:56 AM 35.1503 -99.9219 274° West 429 494 38,000  Level Albuquerque Center
Tue 10:41:58 AM 35.1592 -100.0689 274° West 430 495 38,000  Level Albuquerque Center
Tue 10:43:00 AM 35.1664 -100.2133 274° West 427 491 38,000  Level Albuquerque Center
Tue 10:44:02 AM 35.1731 -100.3589 273° West 427 491 38,000  Level Albuquerque Center
Tue 10:45:04 AM 35.1822 -100.5139 274° West 427 491 38,000  Level Albuquerque Center
Tue 10:46:06 AM 35.1900 -100.6586 274° West 427 491 38,000  Level Albuquerque Center
Tue 10:47:08 AM 35.1956 -100.8025 273° West 426 490 38,000  Level Albuquerque Center
Tue 10:48:10 AM 35.2025 -100.9456 273° West 425 489 38,000  Level Albuquerque Center
Tue 10:49:12 AM 35.2092 -101.0900 273° West 426 490 38,000  Level Albuquerque Center
Tue 10:50:14 AM 35.2169 -101.2644 273° West 429 494 38,000  Level Albuquerque Center
Tue 10:51:16 AM 35.2242 -101.4064 274° West 431 496 38,000  Level Albuquerque Center
Tue 10:52:18 AM 35.2306 -101.5533 273° West 432 497 38,000  Level Albuquerque Center
Tue 10:53:20 AM 35.2342 -101.7108 272° West 432 497 38,000  Level Albuquerque Center
Tue 10:54:22 AM 35.2331 -101.8589 270° West 432 497 38,000  Level Albuquerque Center
Tue 10:55:24 AM 35.2281 -102.0097 268° West 433 498 38,000  Level Albuquerque Center
Tue 10:56:26 AM 35.2250 -102.1578 269° West 436 502 38,000  Level Albuquerque Center
Tue 10:57:28 AM 35.2217 -102.3053 268° West 435 501 38,000  Level Albuquerque Center
Tue 10:58:30 AM 35.2175 -102.4536 268° West 436 502 38,000  Level Albuquerque Center
Tue 10:59:32 AM 35.2128 -102.6317 268° West 438 504 38,000  Level Albuquerque Center
Tue 11:00:34 AM 35.2086 -102.7808 268° West 439 505 38,000  Level Albuquerque Center
Tue 11:01:36 AM 35.2042 -102.9286 268° West 438 504 38,000  Level Albuquerque Center
Tue 11:02:38 AM 35.2000 -103.0800 268° West 437 503 38,000  Level Albuquerque Center
Tue 11:03:40 AM 35.1956 -103.2308 268° West 441 507 38,000  Level Albuquerque Center
Tue 11:04:42 AM 35.1900 -103.3828 267° West 443 510 38,000  Level Albuquerque Center
Tue 11:05:44 AM 35.1844 -103.5356 267° West 446 513 38,000  Level Albuquerque Center
Tue 11:06:46 AM 35.1792 -103.7131 268° West 445 512 38,000  Level Albuquerque Center
Tue 11:07:48 AM 35.1744 -103.8675 268° West 449 517 38,000  Level Albuquerque Center
Tue 11:08:50 AM 35.1694 -104.0131 268° West 451 519 38,000  Level Albuquerque Center
Tue 11:09:52 AM 35.1653 -104.1658 268° West 452 520 38,000  Level Albuquerque Center
Tue 11:10:54 AM 35.1597 -104.3153 267° West 445 512 38,000  Level Albuquerque Center
Tue 11:11:56 AM 35.1533 -104.4953 268° West 442 509 38,000  Level Albuquerque Center
Tue 11:12:58 AM 35.1461 -104.6392 267° West 439 505 38,000  Level Albuquerque Center
Tue 11:14:00 AM 35.1406 -104.7872 267° West 434 499 38,000  Level Albuquerque Center
Tue 11:15:02 AM 35.1353 -104.9342 268° West 430 495 38,000  Level Albuquerque Center
Tue 11:16:04 AM 35.1303 -105.0792 268° West 426 490 38,000  Level Albuquerque Center
Tue 11:21:32 AM 35.0920 -105.8780 268° West 435 501 38,000  Level FlightAware ADS-B
Tue 11:22:17 AM 35.0870 -105.9960 267° West 431 496 38,000  Level FlightAware ADS-B
Tue 11:22:57 AM 35.0820 -106.0930 266° West 430 495 38,000  Level FlightAware ADS-B
Tue 11:23:42 AM 35.0770 -106.2070 267° West 432 497 38,000  Level FlightAware ADS-B
Tue 11:24:22 AM 35.0720 -106.3000 266° West 423 487 38,000  Level FlightAware ADS-B
Tue 11:25:02 AM 35.0670 -106.3970 266° West 422 486 38,000  Level FlightAware ADS-B
Tue 11:25:47 AM 35.0610 -106.5030 266° West 423 487 38,000  Level FlightAware ADS-B
Tue 11:26:27 AM 35.0560 -106.5990 266° West 424 488 38,000  Level FlightAware ADS-B
Tue 11:27:12 AM 35.0500 -106.7060 266° West 424 488 38,000  Level FlightAware ADS-B
Tue 11:27:52 AM 35.0450 -106.8020 266° West 422 486 38,000  Level FlightAware ADS-B
Tue 11:28:37 AM 35.0410 -106.9060 267° West 429 494 38,000  Level FlightAware ADS-B
Tue 11:29:17 AM 35.0390 -107.0030 269° West 424 488 38,000  Level FlightAware ADS-B
Tue 11:29:57 AM 35.0370 -107.0980 269° West 423 487 38,000  Level FlightAware ADS-B
Tue 11:30:42 AM 35.0340 -107.2090 268° West 422 486 38,000  Level FlightAware ADS-B
Tue 11:31:27 AM 35.0310 -107.3140 268° West 419 482 38,000  Level FlightAware ADS-B
Tue 11:32:07 AM 35.0280 -107.4060 268° West 421 484 38,000  Level FlightAware ADS-B
Tue 11:32:47 AM 35.0260 -107.5030 269° West 424 488 38,000  Level FlightAware ADS-B
Tue 11:33:27 AM 35.0230 -107.5980 268° West 422 486 38,000  Level FlightAware ADS-B
Tue 11:34:12 AM 35.0190 -107.7060 267° West 420 483 38,000  Level FlightAware ADS-B
Tue 11:34:57 AM 35.0160 -107.8110 268° West 422 486 38,000  Level FlightAware ADS-B
Tue 11:35:37 AM 35.0130 -107.9060 268° West 429 494 38,000  Level FlightAware ADS-B
Tue 11:36:22 AM 35.0090 -108.0180 268° West 432 497 38,000  Level FlightAware ADS-B
Tue 11:37:02 AM 35.0060 -108.1150 268° West 428 493 38,000  Level FlightAware ADS-B
Tue 11:37:42 AM 35.0030 -108.2090 268° West 427 491 38,000  Level FlightAware ADS-B
Tue 11:38:27 AM 34.9990 -108.3170 267° West 426 490 38,000  Level FlightAware ADS-B
Tue 11:39:07 AM 34.9950 -108.4140 267° West 427 491 38,000  Level FlightAware ADS-B
Tue 11:39:47 AM 34.9920 -108.5090 268° West 428 493 38,000  Level FlightAware ADS-B
Tue 11:40:32 AM 34.9880 -108.6120 267° West 431 496 38,000  Level FlightAware ADS-B
Tue 11:41:12 AM 34.9840 -108.6950 267° West 431 496 38,000  Level FlightAware ADS-B
Tue 11:41:57 AM 34.9800 -108.8140 268° West 424 488 38,000  Level FlightAware ADS-B
Tue 11:42:37 AM 34.9760 -108.9090 267° West 425 489 38,000  Level FlightAware ADS-B
Tue 11:43:17 AM 34.9720 -109.0060 267° West 420 483 38,000  Level FlightAware ADS-B
Tue 11:44:02 AM 34.9660 -109.1040 266° West 420 483 38,000  Level FlightAware ADS-B
Tue 11:44:42 AM 34.9620 -109.1840 267° West 420 483 38,000  Level FlightAware ADS-B
Tue 11:45:22 AM 34.9570 -109.2640 266° West 420 483 38,000  Level FlightAware ADS-B
Tue 11:46:02 AM 34.9530 -109.3450 267° West 420 483 38,000  Level FlightAware ADS-B
Tue 11:46:52 AM 34.9470 -109.4450 266° West 420 483 38,000  Level FlightAware ADS-B
Tue 11:47:32 AM 34.9420 -109.5260 266° West 420 483 38,000  Level FlightAware ADS-B
Tue 11:48:12 AM 34.9380 -109.6060 267° West 420 483 38,000  Level FlightAware ADS-B
Tue 11:48:52 AM 34.9330 -109.6870 266° West 420 483 38,000  Level FlightAware ADS-B
Tue 11:49:32 AM 34.9280 -109.7670 266° West 420 483 38,000  Level FlightAware ADS-B
Tue 11:50:22 AM 34.9230 -109.8670 267° West 420 483 38,000  Level FlightAware ADS-B
Tue 11:51:02 AM 34.9180 -109.9480 266° West 420 483 38,000  Level FlightAware ADS-B
Tue 11:51:42 AM 34.8930 -110.1950 263° West 38,000  Level FlightAware ADS-B
Tue 11:52:27 AM 34.8850 -110.2970 265° West 427 491 38,000  Level FlightAware ADS-B
Tue 11:53:02 AM 34.8790 -110.3830 265° West 424 488 38,000  Level FlightAware ADS-B
Tue 11:53:42 AM 34.8720 -110.4810 265° West 429 494 38,000  Level FlightAware ADS-B
Tue 11:54:32 AM 34.8630 -110.5980 265° West 427 491 38,000  Level FlightAware ADS-B
Tue 11:55:07 AM 34.8570 -110.6780 265° West 423 487 38,000  Level FlightAware ADS-B
Tue 11:55:52 AM 34.8480 -110.7950 265° West 421 484 38,000  Level FlightAware ADS-B
Tue 11:56:37 AM 34.8400 -110.8900 264° West 423 487 38,000  Level FlightAware ADS-B
Tue 11:57:22 AM 34.8310 -111.0000 264° West 426 490 38,000  Level FlightAware ADS-B
Tue 11:58:02 AM 34.8230 -111.0980 264° West 425 489 38,000  Level FlightAware ADS-B
Tue 11:58:37 AM 34.8160 -111.1820 264° West 429 494 38,000  Level FlightAware ADS-B
Tue 11:59:22 AM 34.8070 -111.2930 264° West 431 496 38,000  Level FlightAware ADS-B
Tue 12:00:07 PM 34.7970 -111.4160 264° West 429 494 38,000  Level FlightAware ADS-B
Tue 12:00:52 PM 34.7900 -111.5020 264° West 427 491 38,000  Level FlightAware ADS-B
Tue 12:01:32 PM 34.7810 -111.6040 264° West 432 497 38,000  Level FlightAware ADS-B
Tue 12:02:12 PM 34.7710 -111.7200 264° West 435 501 38,000  Level FlightAware ADS-B
Tue 12:02:57 PM 34.7620 -111.8260 264° West 428 493 38,000  Level FlightAware ADS-B
Tue 12:03:37 PM 34.7530 -111.9260 264° West 427 491 38,000  Level FlightAware ADS-B
Tue 12:04:12 PM 34.7470 -111.9900 264° West 425 489 38,000  Level FlightAware ADS-B
Tue 12:05:02 PM 34.7360 -112.1080 264° West 417 480 38,000  Level FlightAware ADS-B
Tue 12:05:42 PM 34.7290 -112.1980 265° West 417 480 38,000  Level FlightAware ADS-B
Tue 12:06:27 PM 34.7200 -112.2930 263° West 421 484 38,000  Level FlightAware ADS-B
Tue 12:07:07 PM 34.7100 -112.3950 263° West 422 486 38,000  Level FlightAware ADS-B
Tue 12:07:47 PM 34.7020 -112.4850 264° West 422 486 38,000  Level FlightAware ADS-B
Tue 12:08:32 PM 34.6890 -112.5940 262° West 417 480 38,000  Level FlightAware ADS-B
Tue 12:09:12 PM 34.6760 -112.7080 262° West 414 476 38,000  Level FlightAware ADS-B
Tue 12:09:57 PM 34.6640 -112.8110 262° West 416 479 38,000  Level FlightAware ADS-B
Tue 12:10:37 PM 34.6530 -112.9030 262° West 415 478 38,000  Level FlightAware ADS-B
Tue 12:11:17 PM 34.6420 -112.9930 262° West 414 476 38,000  Level FlightAware ADS-B
Tue 12:12:02 PM 34.6290 -113.1020 262° West 416 479 38,000  Level FlightAware ADS-B
Tue 12:12:42 PM 34.6180 -113.1920 262° West 417 480 38,000  Level FlightAware ADS-B
Tue 12:13:22 PM 34.6060 -113.2850 261° West 416 479 38,000  Level FlightAware ADS-B
Tue 12:14:07 PM 34.5940 -113.3870 262° West 412 474 38,000  Level FlightAware ADS-B
Tue 12:14:47 PM 34.5820 -113.4780 261° West 410 472 38,000  Level FlightAware ADS-B
Tue 12:15:32 PM 34.5710 -113.5690 262° West 409 471 38,000  Level FlightAware ADS-B
Tue 12:16:12 PM 34.5560 -113.6700 260° West 408 470 38,000  Level FlightAware ADS-B
Tue 12:16:57 PM 34.5370 -113.7680 257° West 407 468 38,000  Level FlightAware ADS-B
Tue 12:17:37 PM 34.5190 -113.8530 256° West 406 467 38,000  Level FlightAware ADS-B
Tue 12:18:17 PM 34.5010 -113.9410 256° West 404 465 38,000  Level FlightAware ADS-B
Tue 12:19:02 PM 34.4800 -114.0460 256° West 405 466 38,000  Level FlightAware ADS-B
Tue 12:19:37 PM 34.4650 -114.1190 256° West 405 466 38,000  Level FlightAware ADS-B
Tue 12:20:27 PM 34.4420 -114.2300 256° West 406 467 38,000  Level FlightAware ADS-B
Tue 12:21:07 PM 34.4240 -114.3180 256° West 406 467 38,000  Level FlightAware ADS-B
Tue 12:21:47 PM 34.4050 -114.4070 256° West 408 470 38,000  Level FlightAware ADS-B
Tue 12:22:32 PM 34.3850 -114.4990 255° West 408 470 38,000  Level FlightAware ADS-B
Tue 12:23:12 PM 34.3650 -114.5990 256° West 412 474 38,000  Level FlightAware ADS-B
Tue 12:23:52 PM 34.3470 -114.6830 255° West 413 475 38,000  Level FlightAware ADS-B
Tue 12:24:32 PM 34.3300 -114.7590 255° West 413 475 38,000  Level FlightAware ADS-B
Tue 12:25:17 PM 34.3070 -114.8760 257° West 413 475 38,000  Level FlightAware ADS-B
Tue 12:26:02 PM 34.2870 -114.9680 255° West 412 474 38,000  Level FlightAware ADS-B
Tue 12:26:42 PM 34.2700 -115.0430 255° West 412 474 38,000 -1,553 Level FlightAware ADS-B
Tue 12:27:27 PM 34.2480 -115.1490 256° West 382 440 35,800 -1,624 Descending FlightAware ADS-B
Tue 12:28:07 PM 34.2310 -115.2280 255° West 382 440 35,700 -975 Descending FlightAware ADS-B
Tue 12:28:47 PM 34.2130 -115.3150 256° West 370 426 34,500 -1,976 Descending FlightAware ADS-B
Tue 12:29:32 PM 34.1920 -115.4110 255° West 393 452 32,900 -1,694 Descending FlightAware ADS-B
Tue 12:30:12 PM 34.1730 -115.4950 255° West 390 449 32,100 -1,059 Descending FlightAware ADS-B
Tue 12:30:57 PM 34.1540 -115.5800 255° West 357 411 31,400 -1,260 Descending FlightAware ADS-B
Tue 12:31:52 PM 34.1310 -115.6850 255° West 334 384 30,000 -1,600 Descending FlightAware ADS-B
Tue 12:32:27 PM 34.1180 -115.7450 255° West 326 375 29,000 -1,500 Descending FlightAware ADS-B
Tue 12:33:12 PM 34.1030 -115.8300 258° West 342 394 28,000 -667 Descending FlightAware ADS-B
Tue 12:33:57 PM 34.0920 -115.9100 261° West 344 396 28,000  Level FlightAware ADS-B
Tue 12:34:37 PM 34.0800 -115.9870 259° West 345 397 28,000  Level FlightAware ADS-B
Tue 12:35:22 PM 34.0680 -116.0720 260° West 344 396 28,000  Level FlightAware ADS-B
Tue 12:36:02 PM 34.0560 -116.1480 259° West 344 396 28,000  Level FlightAware ADS-B
Tue 12:36:42 PM 34.0450 -116.2220 260° West 343 395 28,000  Level FlightAware ADS-B
Tue 12:37:27 PM 34.0320 -116.3110 260° West 344 396 28,000 -424 Level FlightAware ADS-B
Tue 12:38:07 PM 34.0200 -116.3870 259° West 340 391 27,400 -988 Descending FlightAware ADS-B
Tue 12:38:52 PM 34.0080 -116.4670 260° West 336 387 26,600 -1,059 Descending FlightAware ADS-B
Tue 12:39:32 PM 34.0010 -116.5420 264° West 331 381 25,900 -1,050 Descending FlightAware ADS-B
Tue 12:40:12 PM 33.9950 -116.6130 264° West 327 376 25,200 -1,129 Descending FlightAware ADS-B
Tue 12:40:57 PM 33.9890 -116.6960 265° West 321 369 24,300 -1,553 Descending FlightAware ADS-B
Tue 12:41:37 PM 33.9830 -116.7660 264° West 317 365 23,000 -1,906 Descending FlightAware ADS-B
Tue 12:42:22 PM 33.9760 -116.8450 264° West 312 359 21,600 -1,835 Descending FlightAware ADS-B
Tue 12:43:02 PM 33.9710 -116.9130 265° West 307 353 20,400 -1,725 Descending FlightAware ADS-B
Tue 12:43:42 PM 33.9650 -116.9790 264° West 304 350 19,300 -1,765 Descending FlightAware ADS-B
Tue 12:44:27 PM 33.9590 -117.0570 265° West 301 346 17,900 -1,694 Descending FlightAware ADS-B
Tue 12:45:07 PM 33.9530 -117.1230 264° West 298 343 16,900 -1,129 Descending FlightAware ADS-B
Tue 12:45:52 PM 33.9470 -117.1960 264° West 299 344 16,300 -776 Descending FlightAware ADS-B
Tue 12:46:32 PM 33.9420 -117.2620 265° West 295 339 15,800 -750 Descending FlightAware ADS-B
Tue 12:47:12 PM 33.9360 -117.3260 264° West 294 338 15,300 -1,059 Descending FlightAware ADS-B
Tue 12:47:57 PM 33.9410 -117.3990 275° West 285 328 14,300 -1,200 Descending FlightAware ADS-B
Tue 12:48:42 PM 33.9630 -117.4630 293° West 274 315 13,500 -918 Descending FlightAware ADS-B
Tue 12:49:22 PM 33.9830 -117.5170 294° West 255 293 13,000 -975 Descending FlightAware ADS-B
Tue 12:50:02 PM 34.0010 -117.5700 292° West 250 288 12,200 -1,286 Descending FlightAware ADS-B
Tue 12:50:32 PM 34.0130 -117.6090 290° West 247 284 11,500 -1,150 Descending FlightAware ADS-B
Tue 12:52:02 PM 34.0020 -117.7280 264° West 258 297 9,900 -1,233 Descending FlightAware ADS-B
Tue 12:53:32 PM 33.9890 -117.8640 263° West 263 303 7,800 -1,400 Descending FlightAware ADS-B
Tue 12:54:02 PM 33.9850 -117.9070 264° West 258 297 7,100 -1,400 Descending FlightAware ADS-B
Tue 12:54:32 PM 33.9810 -117.9500 264° West 258 297 6,400 -1,309 Descending FlightAware ADS-B
Tue 12:54:57 PM 33.9780 -117.9830 264° West 256 295 5,900 -1,200 Descending FlightAware ADS-B
Tue 12:55:27 PM 33.9730 -118.0260 262° West 251 289 5,300 -873 Descending FlightAware ADS-B
Tue 12:55:52 PM 33.9700 -118.0610 264° West 232 267 5,100 -655 Descending FlightAware ADS-B
Tue 12:56:22 PM 33.9660 -118.0980 263° West 225 259 4,700 -982 Descending FlightAware ADS-B
Tue 12:56:47 PM 33.9630 -118.1280 263° West 223 257 4,200 -1,091 Descending FlightAware ADS-B
Tue 12:57:17 PM 33.9600 -118.1630 264° West 207 238 3,700 -1,000 Descending FlightAware ADS-B
Tue 12:57:47 PM 33.9560 -118.1960 262° West 194 223 3,200 -1,080 Descending FlightAware ADS-B
Tue 12:58:07 PM 33.9540 -118.2180 264° West 192 221 2,800 -1,080 Descending FlightAware ADS-B
Tue 12:58:37 PM 33.9510 -118.2490 263° West 189 217 2,300 -800 Descending FlightAware ADS-B
Tue 12:59:07 PM 33.9490 -118.2660 262° West 191 220 2,000 -700 Descending FlightAware ADS-B
Tue 12:59:37 PM 33.9460 -118.2910 262° West 182 209 1,600 -873 Descending FlightAware ADS-B
Tue 01:00:02 PM 33.9440 -118.3150 264° West 163 188 1,200 -480 Descending FlightAware ADS-B
Tue 01:00:27 PM 33.9430 -118.3360 267° West 163 188 1,200 -800 Level FlightAware ADS-B
Tue 01:01:02 PM 33.9390 -118.3680 261° West 152 175 400 -800 Descending FlightAware ADS-B
Tue 01:01:42 PM 33.9360 -118.3980 263° West 152 175 200 -300 Descending FlightAware ADS-B

Login

Don't have an account? Register now (free) for customized features, flight alerts, and more!